• Join FlightAware (Why Join?)
  • Login
  • US Flag 
10:20AM EDT


 

Airport Tracker/Info


-or-


 

Live Flight TrackerFlight Track Log ✈ FDX1286 ✈ 18-Jun-2013 ✈ KLCK - KMEM

Flight Track Log - Related Links

Times and Time Zones

All times are in EDT time to prevent confusion due to time zone crossing. See the FDX1286 flight status page for this flight to view local times or setup timezone preferences in your user account.

Time Position Orientation Groundspeed Altitude Reporting Facility
EDT Latitude Longitude Course Direction KTS MPH feet Rate Location/Type
10:36PM 39.8310 -82.8900 66° East 180 207 2,400  Level FlightAware
10:36PM 39.8350 -82.8760 70° East 204 235 2,700 1,320 Climbing FlightAware
10:36PM 39.8370 -82.8370 86° East 244 281 3,300 1,920 Climbing FlightAware
10:37PM 39.8230 -82.7980 115° Southeast 267 307 4,500 2,700 Climbing FlightAware
10:37PM 39.8110 -82.7890 150° Southeast 275 316 5,100 3,000 Climbing FlightAware
10:37PM 39.7960 -82.7850 168° South 279 321 5,700 3,240 Climbing FlightAware
10:38PM 39.7610 -82.8100 209° Southwest 277 319 7,500 3,360 Climbing FlightAware
10:38PM 39.7530 -82.8350 247° West 274 315 8,400 3,360 Climbing FlightAware
10:38PM 39.7420 -82.8800 252° West 279 321 10,000 2,640 Climbing FlightAware
10:39PM 39.7180 -82.9420 243° Southwest 312 359 11,400 1,920 Climbing FlightAware
10:40PM 39.6920 -83.0100 244° Southwest 347 399 12,500 1,980 Climbing FlightAware
10:40PM 39.6620 -83.0870 243° Southwest 367 422 14,000 2,460 Climbing FlightAware
10:41PM 39.6270 -83.1760 243° Southwest 377 434 16,000 2,760 Climbing FlightAware
10:42PM 39.5950 -83.2590 243° Southwest 376 433 18,000 2,820 Climbing FlightAware
10:42PM 39.5640 -83.3390 243° Southwest 371 427 19,900 2,460 Climbing FlightAware
10:43PM 39.5290 -83.4290 243° Southwest 376 433 21,500 1,740 Climbing FlightAware
10:44PM 39.4970 -83.5090 243° Southwest 394 453 22,400 1,620 Climbing FlightAware
10:45PM 39.4600 -83.6050 243° Southwest 401 461 23,800 1,980 Climbing FlightAware
10:45PM 39.4220 -83.6910 240° Southwest 404 465 25,300 1,740 Climbing FlightAware
10:46PM 39.3730 -83.7660 230° Southwest 418 481 26,200 1,500 Climbing FlightAware
10:47PM 39.3090 -83.8400 222° Southwest 425 489 27,400 1,560 Climbing FlightAware
10:47PM 39.2490 -83.9070 221° Southwest 428 493 28,400 1,440 Climbing FlightAware
10:48PM 39.1890 -83.9770 222° Southwest 433 498 29,400 1,320 Climbing FlightAware
10:49PM 39.1220 -84.0520 221° Southwest 437 503 30,300 600 Climbing FlightAware
10:49PM 39.0730 -84.1070 221° Southwest 437 503 30,300 1,920 Level FlightAware
10:50PM 39.0020 -84.1870 221° Southwest 423 487 32,800 1,560 Climbing FlightAware
10:51PM 38.9310 -84.2660 221° Southwest 421 484 33,000 720 Climbing FlightAware
10:52PM 38.8600 -84.3470 222° Southwest 407 468 34,000 780 Climbing FlightAware
10:52PM 38.8130 -84.3990 221° Southwest 407 468 34,000  Level FlightAware
10:53PM 38.7530 -84.4650 221° Southwest 407 468 34,000  Level FlightAware
10:54PM 38.7090 -84.5150 222° Southwest 407 468 34,000  Level FlightAware
10:55PM 38.6490 -84.5810 221° Southwest 407 468 34,000  Level FlightAware
10:56PM 38.5830 -84.6550 221° Southwest 407 468 34,000  Level FlightAware
10:56PM 38.4750 -84.7780 222° Southwest 415 478 34,000  Level FlightAware
10:57PM 38.4120 -84.8470 221° Southwest 415 478 34,000  Level FlightAware
10:58PM 38.3530 -84.9130 221° Southwest 416 479 34,000  Level FlightAware
10:58PM 38.2920 -84.9800 221° Southwest 416 479 34,000  Level FlightAware
10:59PM 38.2270 -85.0510 221° Southwest 418 481 34,000  Level FlightAware
11:00PM 38.1830 -85.0990 221° Southwest 418 481 34,000  Level FlightAware
11:00PM 38.1280 -85.1540 218° Southwest 426 490 34,000 60 Level FlightAware
11:01PM 38.0829 -85.1854 209° Southwest 427 491 34,100 60 Climbing FlightAware ADS-B
11:02PM 37.9520 -85.2770 209° Southwest 422 486 34,100 -60 Level FlightAware
11:02PM 37.8830 -85.3230 208° Southwest 422 486 34,000 -120 Descending FlightAware
11:03PM 37.8060 -85.3750 208° Southwest 426 490 34,000  Level FlightAware
11:04PM 37.7400 -85.4220 209° Southwest 427 491 34,000  Level FlightAware
11:05PM 37.6780 -85.4650 209° Southwest 425 489 34,000  Level FlightAware
11:05PM 37.6100 -85.5420 222° Southwest 416 479 34,000  Level FlightAware
11:06PM 37.5528 -85.6178 226° Southwest 418 481 34,000  Level FlightAware ADS-B
11:06PM 37.5126 -85.6708 226° Southwest 420 483 34,000  Level FlightAware ADS-B
11:08PM 37.4271 -85.7845 227° Southwest 421 484 34,000  Level FlightAware ADS-B
11:08PM 37.3811 -85.8454 226° Southwest 420 483 34,000  Level FlightAware ADS-B
11:09PM 37.3374 -85.9039 227° Southwest 419 482 34,000  Level FlightAware ADS-B
11:09PM 37.2965 -85.9586 227° Southwest 418 481 34,000  Level FlightAware ADS-B
11:10PM 37.2522 -86.0166 226° Southwest 419 482 34,000  Level FlightAware ADS-B
11:11PM 37.1636 -86.1345 227° Southwest 417 480 34,000  Level FlightAware ADS-B
11:11PM 37.1134 -86.2011 227° Southwest 415 478 34,000  Level FlightAware ADS-B
11:12PM 37.0709 -86.2567 226° Southwest 415 478 34,000  Level FlightAware ADS-B
11:12PM 37.0311 -86.3089 226° Southwest 414 476 34,000  Level FlightAware ADS-B
11:13PM 36.9893 -86.3642 227° Southwest 415 478 34,000  Level FlightAware ADS-B
11:14PM 36.8995 -86.4881 228° Southwest 414 476 34,000  Level FlightAware ADS-B
11:15PM 36.8640 -86.5409 230° Southwest 413 475 34,000  Level FlightAware ADS-B
11:15PM 36.8300 -86.5898 229° Southwest 413 475 34,000  Level FlightAware ADS-B
11:16PM 36.7450 -86.7140 230° Southwest 414 476 34,000  Level FlightAware
11:17PM 36.6960 -86.7870 230° Southwest 415 478 34,100 60 Climbing FlightAware
11:17PM 36.6726 -86.8217 230° Southwest 413 475 34,100  Level FlightAware ADS-B
11:18PM 36.5920 -86.9400 230° Southwest 415 478 34,100  Level FlightAware
11:19PM 36.5360 -87.0200 229° Southwest 412 474 34,100 -120 Level FlightAware
11:20PM 36.4920 -87.0840 229° Southwest 412 474 34,000 -120 Descending FlightAware
11:20PM 36.4330 -87.1710 230° Southwest 410 472 34,000  Level FlightAware
11:21PM 36.3840 -87.2400 229° Southwest 408 470 34,000  Level FlightAware
11:22PM 36.3270 -87.3230 230° Southwest 407 468 34,000  Level FlightAware
11:23PM 36.2820 -87.3870 229° Southwest 406 467 34,000  Level FlightAware
11:23PM 36.2280 -87.4650 229° Southwest 405 466 34,000  Level FlightAware
11:24PM 36.1750 -87.5420 230° Southwest 406 467 34,000  Level FlightAware
11:25PM 36.1260 -87.6130 230° Southwest 409 471 34,000  Level FlightAware
11:25PM 36.0710 -87.6910 229° Southwest 411 473 34,000 60 Level FlightAware
11:26PM 36.0210 -87.7620 229° Southwest 411 473 34,100 60 Climbing FlightAware
11:27PM 35.9650 -87.8410 229° Southwest 414 476 34,100  Level FlightAware
11:27PM 35.9100 -87.9190 229° Southwest 413 475 34,100 -120 Level FlightAware
11:28PM 35.8670 -87.9800 229° Southwest 413 475 34,000 -180 Descending FlightAware
11:29PM 35.7930 -88.0850 229° Southwest 416 479 33,900 -120 Descending FlightAware
11:30PM 35.7520 -88.1440 229° Southwest 416 479 33,900 -2,040 Level FlightAware
11:31PM 35.6680 -88.2600 228° Southwest 421 484 30,500 -2,040 Descending FlightAware
11:31PM 35.6270 -88.3160 228° Southwest 421 484 30,500  Level FlightAware
11:32PM 35.5870 -88.3710 228° Southwest 421 484 30,500  Level FlightAware
11:33PM 35.5340 -88.4440 228° Southwest 421 484 30,500  Level FlightAware
11:33PM 35.4940 -88.4980 228° Southwest 421 484 30,500  Level FlightAware
11:34PM 35.4410 -88.5700 228° Southwest 421 484 30,500  Level FlightAware
11:35PM 35.3690 -88.6690 228° Southwest 421 484 30,500  Level FlightAware
11:36PM 35.3130 -88.7440 228° Southwest 421 484 30,500  Level FlightAware
11:37PM 35.2720 -88.8000 228° Southwest 421 484 30,500  Level FlightAware
11:38PM 35.2190 -88.8720 228° Southwest 421 484 30,500  Level FlightAware
11:38PM 35.1790 -88.9260 228° Southwest 421 484 30,500  Level FlightAware
11:39PM 35.1260 -88.9980 228° Southwest 421 484 30,500  Level FlightAware
11:40PM 35.0860 -89.0530 228° Southwest 421 484 30,500  Level FlightAware
11:40PM 35.0430 -89.1110 228° Southwest 421 484 30,500 -12,840 Level FlightAware
11:41PM 35.0333 -89.3167 228° Southwest 294 338 6,600 -11,100 Descending KMEM
11:42PM 35.0500 -89.4167 282° West 290 334 5,900 -660 Descending KMEM
11:43PM 35.0500 -89.5000 270° West 289 333 5,400 -720 Descending KMEM
11:44PM 35.0500 -89.6000 270° West 286 329 4,600 -840 Descending KMEM
11:45PM 35.0500 -89.7000 270° West 270 311 3,700 -720 Descending KMEM
11:46PM 35.0500 -89.7833 270° West 237 273 3,100 -900 Descending KMEM
11:47PM 35.0500 -89.8500 270° West 205 236 2,000 -1,020 Descending KMEM
11:48PM 35.0500 -89.9000 270° West 146 168 1,200 -780 Descending KMEM
11:49PM 35.0500 -89.9500 270° West 118 136 500 -720 Descending KMEM